Time;durP1;ratioP1;P1;durP2;ratioP2;P2;SDS_P1;SDS_P2;PMS_P1;PMS_P2;Temp;Humidity;BMP_temperature;BMP_pressure;BME280_temperature;BME280_humidity;BME280_pressure;Samples;Min_cycle;Max_cycle;Signal;HPM_P1;HPM_P2
2022/08/28 00:01:47;;;;;;;10.35;5.22;;;12.40;99.90;;;;;;5064749;28;20123;-69
2022/08/28 00:04:13;;;;;;;8.25;4.30;;;12.30;99.90;;;;;;5084405;28;20052;-69
2022/08/28 00:06:39;;;;;;;11.75;4.60;;;12.30;99.90;;;;;;5065618;28;20028;-69
2022/08/28 00:09:06;;;;;;;10.30;4.60;;;12.30;99.90;;;;;;5070163;28;20138;-69
2022/08/28 00:11:36;;;;;;;9.38;4.45;;;12.30;99.90;;;;;;5063212;28;20049;-69
2022/08/28 00:14:04;;;;;;;7.32;4.38;;;12.20;99.90;;;;;;5060624;28;20036;-69
2022/08/28 00:16:30;;;;;;;9.38;4.70;;;12.20;99.90;;;;;;5062957;28;20070;-69
2022/08/28 00:18:56;;;;;;;12.88;4.78;;;12.20;99.90;;;;;;5065578;28;20055;-69
2022/08/28 00:21:22;;;;;;;9.57;3.85;;;12.10;99.90;;;;;;5068027;28;20119;-69
2022/08/28 00:23:47;;;;;;;7.88;3.53;;;12.00;99.90;;;;;;5062667;28;20051;-69
2022/08/28 00:27:51;;;;;;;10.88;4.35;;;12.10;99.90;;;;;;5063293;28;20070;-69
2022/08/28 00:28:59;;;;;;;9.05;4.35;;;12.10;99.90;;;;;;5063133;28;20044;-69
2022/08/28 00:31:25;;;;;;;9.07;4.05;;;12.00;99.90;;;;;;5063869;28;20044;-69
2022/08/28 00:33:51;;;;;;;11.65;4.05;;;12.00;99.90;;;;;;5063503;28;20078;-69
2022/08/28 00:36:18;;;;;;;8.48;3.92;;;12.00;99.90;;;;;;5078796;28;20093;-69
2022/08/28 00:38:44;;;;;;;13.52;4.43;;;12.00;99.90;;;;;;5056944;28;20045;-69
2022/08/28 00:41:10;;;;;;;11.13;4.07;;;12.00;99.90;;;;;;5078545;28;20131;-69
2022/08/28 00:43:43;;;;;;;10.00;4.65;;;11.90;99.90;;;;;;5078045;28;20047;-69
2022/08/28 00:46:12;;;;;;;9.02;4.63;;;11.90;99.90;;;;;;5048123;28;20041;-69
2022/08/28 00:48:38;;;;;;;8.25;4.28;;;11.80;99.90;;;;;;5053917;28;20071;-69
2022/08/28 00:53:53;;;;;;;6.80;3.95;;;11.80;99.90;;;;;;5083912;28;20048;-69
2022/08/28 00:56:19;;;;;;;8.45;4.10;;;11.80;99.90;;;;;;5066175;28;20479;-69
2022/08/28 00:58:48;;;;;;;10.15;3.90;;;11.70;99.90;;;;;;5060840;28;20483;-69
2022/08/28 01:01:14;;;;;;;11.88;4.60;;;11.70;99.90;;;;;;5063316;28;20029;-69
2022/08/28 01:03:40;;;;;;;8.23;4.57;;;11.70;99.90;;;;;;5060483;28;20161;-69
2022/08/28 01:06:07;;;;;;;7.22;4.20;;;11.80;99.90;;;;;;5064011;28;20514;-69
2022/08/28 01:08:35;;;;;;;8.88;4.18;;;11.80;99.90;;;;;;5084648;28;20043;-69
2022/08/28 01:11:03;;;;;;;7.13;4.07;;;11.70;99.90;;;;;;5064895;28;20442;-69
2022/08/28 01:13:30;;;;;;;9.07;4.15;;;11.70;99.90;;;;;;5083901;28;20518;-69
2022/08/28 01:15:57;;;;;;;11.77;4.70;;;11.70;99.90;;;;;;5084310;28;20037;-69
2022/08/28 01:18:24;;;;;;;9.13;3.53;;;11.60;99.90;;;;;;5062401;28;20127;-69
2022/08/28 01:21:12;;;;;;;7.50;4.05;;;11.70;99.90;;;;;;5060830;28;20044;-69
2022/08/28 01:24:01;;;;;;;6.70;3.55;;;11.70;99.90;;;;;;5060852;28;20040;-69
2022/08/28 01:26:28;;;;;;;12.05;4.22;;;11.60;99.90;;;;;;5058886;28;20044;-69
2022/08/28 01:28:57;;;;;;;8.43;4.25;;;11.50;99.90;;;;;;5059161;28;20040;-69
2022/08/28 01:31:23;;;;;;;8.77;3.67;;;11.50;99.90;;;;;;5058011;28;20047;-69
2022/08/28 01:33:50;;;;;;;10.18;4.68;;;11.50;99.90;;;;;;5064177;28;20075;-69
2022/08/28 01:36:16;;;;;;;7.93;4.22;;;11.50;99.90;;;;;;5084956;28;20040;-69
2022/08/28 01:38:46;;;;;;;6.47;3.80;;;11.40;99.90;;;;;;5071632;28;20057;-69
2022/08/28 01:41:12;;;;;;;6.65;3.47;;;11.40;99.90;;;;;;5072137;28;20041;-69
2022/08/28 01:43:39;;;;;;;7.80;3.78;;;11.40;99.90;;;;;;5070853;28;20032;-69
2022/08/28 01:46:05;;;;;;;8.10;3.80;;;11.30;99.90;;;;;;5070493;28;20511;-69
2022/08/28 01:48:35;;;;;;;9.60;4.70;;;11.30;99.90;;;;;;5065081;28;20044;-69
2022/08/28 01:51:02;;;;;;;6.07;3.38;;;11.40;99.90;;;;;;5065894;28;20048;-69
2022/08/28 01:53:29;;;;;;;11.40;4.07;;;11.40;99.90;;;;;;5063639;28;20119;-69
2022/08/28 01:55:56;;;;;;;13.88;4.15;;;11.40;99.90;;;;;;5084596;28;20032;-69
2022/08/28 01:58:24;;;;;;;7.25;4.35;;;11.40;99.90;;;;;;5063624;28;20048;-69
2022/08/28 02:00:51;;;;;;;6.78;3.40;;;11.40;99.90;;;;;;5071733;28;20047;-70
2022/08/28 02:03:17;;;;;;;9.75;3.95;;;11.40;99.90;;;;;;5053388;28;20431;-70
2022/08/28 02:05:43;;;;;;;10.68;3.72;;;11.40;99.90;;;;;;5071894;28;20044;-70
2022/08/28 02:08:09;;;;;;;6.85;3.85;;;11.30;99.90;;;;;;5066670;28;20448;-70
2022/08/28 02:10:38;;;;;;;7.60;3.40;;;11.40;99.90;;;;;;5064690;28;20396;-70
2022/08/28 02:13:04;;;;;;;6.80;3.03;;;11.30;99.90;;;;;;5053250;28;20055;-70
2022/08/28 02:15:31;;;;;;;6.65;3.60;;;11.30;99.90;;;;;;5066770;28;20092;-70
2022/08/28 02:17:58;;;;;;;6.53;3.40;;;11.30;99.90;;;;;;5081448;28;20044;-70
2022/08/28 02:20:24;;;;;;;7.40;3.22;;;11.20;99.90;;;;;;5068649;28;20051;-70
2022/08/28 02:22:50;;;;;;;13.63;4.88;;;11.20;99.90;;;;;;5063952;28;20055;-70
2022/08/28 02:25:17;;;;;;;7.88;4.30;;;11.20;99.90;;;;;;5088267;28;20115;-70
2022/08/28 02:27:44;;;;;;;10.95;3.65;;;11.10;99.90;;;;;;5088117;28;20074;-70
2022/08/28 02:30:11;;;;;;;8.55;3.65;;;11.20;99.90;;;;;;5067060;28;20544;-70
2022/08/28 02:32:37;;;;;;;7.25;3.78;;;11.20;99.90;;;;;;5069422;28;20036;-70
2022/08/28 02:35:05;;;;;;;10.68;3.25;;;11.20;99.90;;;;;;5084078;28;20047;-70
2022/08/28 02:37:32;;;;;;;10.30;3.33;;;11.10;99.90;;;;;;5068700;28;20070;-70
2022/08/28 02:39:58;;;;;;;8.10;3.42;;;11.10;99.90;;;;;;5046835;28;20484;-70
2022/08/28 02:42:25;;;;;;;7.80;3.80;;;11.00;99.90;;;;;;5074160;28;20076;-69
2022/08/28 02:44:51;;;;;;;5.85;3.22;;;11.10;99.90;;;;;;5090669;28;20043;-70
2022/08/28 02:47:17;;;;;;;8.82;3.35;;;11.10;99.90;;;;;;5085664;28;20388;-70
2022/08/28 02:49:43;;;;;;;7.43;3.88;;;11.10;99.90;;;;;;5069101;28;20131;-70
2022/08/28 02:52:09;;;;;;;7.88;3.97;;;11.10;99.90;;;;;;5067464;28;20052;-70
2022/08/28 02:54:38;;;;;;;9.38;2.97;;;11.00;99.90;;;;;;5067021;28;20398;-70
2022/08/28 02:57:05;;;;;;;7.10;3.30;;;11.00;99.90;;;;;;5065531;28;20215;-70
2022/08/28 02:59:31;;;;;;;8.15;3.20;;;11.00;99.90;;;;;;5046963;28;20044;-69
2022/08/28 03:01:57;;;;;;;7.90;3.60;;;11.00;99.90;;;;;;5080507;28;20037;-70
2022/08/28 03:04:22;;;;;;;8.82;3.53;;;10.90;99.90;;;;;;5064535;28;20492;-70
2022/08/28 03:06:49;;;;;;;9.32;3.65;;;10.90;99.90;;;;;;5065373;28;20384;-70
2022/08/28 03:09:15;;;;;;;7.43;3.38;;;10.90;99.90;;;;;;5065111;28;20429;-70
2022/08/28 03:11:40;;;;;;;7.20;3.25;;;10.90;99.90;;;;;;5067932;28;20055;-70
2022/08/28 03:14:06;;;;;;;6.50;3.72;;;10.90;99.90;;;;;;5082984;28;20116;-70
2022/08/28 03:16:33;;;;;;;6.10;3.20;;;10.90;99.90;;;;;;5069996;28;20089;-70
2022/08/28 03:18:59;;;;;;;6.65;3.10;;;10.90;99.90;;;;;;5069011;28;20065;-70
2022/08/28 03:21:24;;;;;;;5.65;3.45;;;11.00;99.90;;;;;;5062349;28;20044;-70
2022/08/28 03:23:50;;;;;;;8.85;3.60;;;10.90;99.90;;;;;;5056794;28;20044;-70
2022/08/28 03:26:18;;;;;;;8.65;3.03;;;10.80;99.90;;;;;;5064971;28;20033;-70
2022/08/28 03:28:50;;;;;;;11.90;3.65;;;10.90;99.90;;;;;;5063603;28;20041;-70
2022/08/28 03:31:19;;;;;;;8.15;3.35;;;10.80;99.90;;;;;;5064758;28;20033;-70
2022/08/28 03:33:46;;;;;;;10.20;3.60;;;10.80;99.90;;;;;;5068280;28;20040;-70
2022/08/28 03:36:14;;;;;;;8.77;3.42;;;10.80;99.90;;;;;;5067320;28;20459;-70
2022/08/28 03:38:40;;;;;;;6.72;2.95;;;10.70;99.90;;;;;;5063229;28;20036;-70
2022/08/28 03:41:15;;;;;;;6.82;3.03;;;10.80;99.90;;;;;;5065423;28;20044;-70
2022/08/28 03:43:41;;;;;;;8.20;3.22;;;10.80;99.90;;;;;;5071717;28;20040;-70
2022/08/28 03:46:11;;;;;;;8.68;3.50;;;10.80;99.90;;;;;;5081132;28;20063;-69
2022/08/28 03:48:37;;;;;;;6.30;3.03;;;10.70;99.90;;;;;;5060948;28;20058;-70
2022/08/28 03:51:12;;;;;;;8.07;3.10;;;10.80;99.90;;;;;;5077461;28;20480;-70
2022/08/28 03:53:39;;;;;;;10.20;3.95;;;10.80;99.90;;;;;;5063632;28;20065;-70
2022/08/28 03:56:07;;;;;;;11.48;3.63;;;10.70;99.90;;;;;;5065807;28;20037;-70
2022/08/28 03:58:33;;;;;;;9.77;3.53;;;10.70;99.90;;;;;;5064393;28;20032;-70
2022/08/28 04:00:59;;;;;;;8.32;3.75;;;10.80;99.90;;;;;;5065166;28;20112;-70
2022/08/28 04:03:24;;;;;;;6.47;3.08;;;10.70;99.90;;;;;;5085985;28;20106;-70
2022/08/28 04:05:51;;;;;;;11.13;4.03;;;10.70;99.90;;;;;;5065671;28;20399;-70
2022/08/28 04:08:18;;;;;;;10.30;3.92;;;10.70;99.90;;;;;;5063819;28;20062;-70
2022/08/28 04:10:45;;;;;;;9.00;4.20;;;10.80;99.90;;;;;;5061390;28;20572;-70
2022/08/28 04:13:13;;;;;;;6.00;3.22;;;10.70;99.90;;;;;;5075162;28;20036;-70
2022/08/28 04:15:39;;;;;;;9.23;3.67;;;10.70;99.90;;;;;;5064673;28;20037;-70
2022/08/28 04:18:05;;;;;;;9.57;3.67;;;10.70;99.90;;;;;;5075302;28;20261;-70
2022/08/28 04:20:32;;;;;;;8.25;4.10;;;10.70;99.90;;;;;;5069723;28;20040;-70
2022/08/28 04:22:57;;;;;;;9.80;3.67;;;10.70;99.90;;;;;;5062262;28;20555;-70
2022/08/28 04:25:23;;;;;;;8.25;3.42;;;10.70;99.90;;;;;;5068291;28;20078;-70
2022/08/28 04:27:50;;;;;;;7.68;3.50;;;10.70;99.90;;;;;;5064166;28;20044;-70
2022/08/28 04:30:16;;;;;;;6.45;3.75;;;10.70;99.90;;;;;;5084274;28;20364;-70
2022/08/28 04:32:41;;;;;;;11.55;4.20;;;10.70;99.90;;;;;;5062073;28;20131;-70
2022/08/28 04:35:09;;;;;;;8.80;3.90;;;10.70;99.90;;;;;;5068149;28;20141;-70
2022/08/28 04:37:36;;;;;;;6.80;3.38;;;10.70;99.90;;;;;;5057529;28;20048;-70
2022/08/28 04:40:05;;;;;;;9.02;3.88;;;10.70;99.90;;;;;;5063871;28;20040;-70
2022/08/28 04:42:31;;;;;;;9.40;3.20;;;10.70;99.90;;;;;;5063710;28;20550;-70
2022/08/28 04:44:58;;;;;;;7.35;3.28;;;10.80;99.90;;;;;;5070023;28;20141;-69
2022/08/28 04:47:25;;;;;;;8.52;3.55;;;10.80;99.90;;;;;;5083779;28;20517;-70
2022/08/28 04:49:50;;;;;;;8.68;3.15;;;10.90;99.90;;;;;;5066548;28;20036;-70
2022/08/28 04:52:16;;;;;;;8.05;3.50;;;10.90;99.90;;;;;;5068817;28;20175;-70
2022/08/28 04:54:42;;;;;;;12.57;3.80;;;11.00;99.90;;;;;;5068021;28;20032;-70
2022/08/28 04:57:08;;;;;;;10.57;3.75;;;11.00;99.90;;;;;;5052846;28;20043;-70
2022/08/28 04:59:34;;;;;;;8.60;3.65;;;11.00;99.90;;;;;;5065242;28;20043;-70
2022/08/28 05:01:59;;;;;;;8.57;3.97;;;10.90;99.90;;;;;;5088258;28;20042;-70
2022/08/28 05:04:25;;;;;;;10.80;3.17;;;11.00;99.90;;;;;;5083465;28;20419;-70
2022/08/28 05:06:51;;;;;;;9.55;3.90;;;11.00;99.90;;;;;;5071104;28;20033;-70
2022/08/28 05:09:19;;;;;;;10.02;3.83;;;11.00;99.90;;;;;;5069465;28;20108;-70
2022/08/28 05:11:46;;;;;;;9.07;4.13;;;11.00;99.90;;;;;;5057989;28;20048;-70
2022/08/28 05:14:13;;;;;;;8.38;3.97;;;11.00;99.90;;;;;;5071442;28;20100;-70
2022/08/28 05:16:51;;;;;;;9.55;3.83;;;11.00;99.90;;;;;;5071576;28;20047;-70
2022/08/28 05:19:18;;;;;;;7.75;4.30;;;11.00;99.90;;;;;;5066649;28;20036;-70
2022/08/28 05:21:44;;;;;;;11.82;4.25;;;11.10;99.90;;;;;;5070958;28;20040;-70
2022/08/28 05:24:11;;;;;;;11.15;4.30;;;11.10;99.90;;;;;;5066837;28;20044;-70
2022/08/28 05:26:37;;;;;;;6.13;3.97;;;11.20;99.90;;;;;;5083666;28;20103;-70
2022/08/28 05:29:03;;;;;;;7.43;4.10;;;11.20;99.90;;;;;;5069825;28;20040;-70
2022/08/28 05:31:30;;;;;;;11.40;4.75;;;11.30;99.90;;;;;;5069497;28;20036;-70
2022/08/28 05:33:57;;;;;;;14.48;4.10;;;11.30;99.90;;;;;;5066662;28;20049;-69
2022/08/28 05:36:24;;;;;;;9.63;4.03;;;11.40;99.90;;;;;;5088579;28;20036;-70
2022/08/28 05:38:54;;;;;;;7.28;3.88;;;11.60;99.90;;;;;;5069388;28;20051;-69
2022/08/28 05:41:22;;;;;;;10.70;3.92;;;11.60;99.90;;;;;;5075896;28;20040;-69
2022/08/28 05:43:48;;;;;;;10.25;3.72;;;11.70;99.90;;;;;;5068644;28;20078;-69
2022/08/28 05:46:15;;;;;;;8.40;4.07;;;11.80;99.90;;;;;;5089303;28;20040;-69
2022/08/28 05:48:41;;;;;;;12.57;4.30;;;11.90;99.90;;;;;;5066884;28;20527;-70
2022/08/28 05:51:09;;;;;;;7.50;4.15;;;11.90;99.90;;;;;;5067879;28;20032;-70
2022/08/28 05:53:40;;;;;;;12.85;4.28;;;12.10;99.90;;;;;;5069398;28;20141;-70
2022/08/28 05:56:07;;;;;;;8.90;3.33;;;12.30;99.90;;;;;;5086779;28;20036;-70
2022/08/28 05:58:33;;;;;;;8.30;3.95;;;12.50;99.90;;;;;;5067500;28;20036;-70
2022/08/28 06:01:15;;;;;;;11.50;3.75;;;12.70;99.90;;;;;;5066308;28;20054;-70
2022/08/28 06:03:43;;;;;;;8.52;3.40;;;12.80;99.90;;;;;;5073585;28;20055;-70
2022/08/28 06:06:10;;;;;;;9.18;3.10;;;12.90;99.90;;;;;;5087846;28;20066;-70
2022/08/28 06:08:37;;;;;;;9.30;3.60;;;13.00;99.90;;;;;;5073894;28;20048;-70
2022/08/28 06:11:04;;;;;;;8.85;3.33;;;13.10;99.90;;;;;;5086383;28;20073;-70
2022/08/28 06:13:30;;;;;;;7.10;3.33;;;13.20;99.90;;;;;;5071222;28;20131;-70
2022/08/28 06:15:56;;;;;;;9.52;3.10;;;13.30;99.90;;;;;;5071534;28;20032;-70
2022/08/28 06:18:22;;;;;;;11.23;3.10;;;13.30;99.90;;;;;;5088952;28;20035;-70
2022/08/28 06:20:48;;;;;;;8.15;3.60;;;13.40;99.90;;;;;;5066672;28;20056;-70
2022/08/28 06:23:17;;;;;;;11.38;3.70;;;13.50;99.90;;;;;;5072509;28;20040;-70
2022/08/28 06:25:45;;;;;;;6.68;2.65;;;13.60;99.90;;;;;;5073291;28;20044;-70
2022/08/28 06:28:13;;;;;;;5.20;2.35;;;13.70;99.90;;;;;;5072255;28;20044;-70
2022/08/28 06:30:42;;;;;;;8.15;2.67;;;13.80;99.90;;;;;;5071864;28;20110;-70
2022/08/28 06:33:08;;;;;;;7.25;2.42;;;13.90;99.90;;;;;;5072342;28;20052;-70
2022/08/28 06:35:40;;;;;;;7.15;2.70;;;14.00;99.90;;;;;;5076156;28;20033;-70
2022/08/28 06:38:06;;;;;;;9.00;2.67;;;14.20;99.90;;;;;;5062823;28;20036;-70
2022/08/28 06:40:45;;;;;;;7.85;2.55;;;14.30;99.90;;;;;;5073843;28;20504;-70
2022/08/28 06:43:11;;;;;;;5.50;1.95;;;14.60;99.90;;;;;;5066178;28;20055;-70
2022/08/28 06:45:42;;;;;;;9.02;2.55;;;14.90;99.90;;;;;;5069431;28;20068;-70
2022/08/28 06:48:09;;;;;;;9.65;2.20;;;15.00;99.90;;;;;;5053286;28;20043;-70
2022/08/28 06:50:40;;;;;;;10.65;2.28;;;15.10;99.90;;;;;;5070501;28;20101;-70
2022/08/28 06:53:08;;;;;;;7.95;2.33;;;15.30;99.90;;;;;;5067347;28;20089;-70
2022/08/28 06:55:35;;;;;;;6.82;1.83;;;15.40;99.90;;;;;;5055794;28;20044;-70
2022/08/28 06:58:01;;;;;;;8.30;2.35;;;15.40;99.90;;;;;;5068173;28;20033;-70
2022/08/28 07:00:27;;;;;;;6.18;2.00;;;15.50;99.90;;;;;;5062402;28;20063;-70
2022/08/28 07:02:53;;;;;;;8.52;1.88;;;15.70;99.90;;;;;;5066223;28;20392;-70
2022/08/28 07:05:18;;;;;;;7.22;1.80;;;15.80;99.90;;;;;;5065591;28;20043;-70
2022/08/28 07:07:44;;;;;;;5.55;1.90;;;15.80;99.90;;;;;;5062434;28;20162;-70
2022/08/28 07:10:10;;;;;;;8.55;2.10;;;16.00;99.90;;;;;;5063349;28;20094;-70
2022/08/28 07:12:35;;;;;;;7.30;1.83;;;16.10;99.90;;;;;;5065369;28;20033;-70
2022/08/28 07:15:03;;;;;;;5.97;1.88;;;16.30;99.90;;;;;;5065434;28;20041;-70
2022/08/28 07:17:29;;;;;;;7.70;1.92;;;16.40;99.90;;;;;;5064745;28;20036;-70
2022/08/28 07:19:55;;;;;;;8.52;1.77;;;16.60;99.90;;;;;;5062140;28;20084;-70
2022/08/28 07:22:21;;;;;;;8.07;2.03;;;16.70;99.90;;;;;;5067968;28;20448;-70
2022/08/28 07:24:47;;;;;;;7.28;1.48;;;16.90;99.90;;;;;;5060992;28;20063;-70
2022/08/28 07:27:13;;;;;;;6.82;1.50;;;17.00;99.90;;;;;;5065268;28;20096;-70
2022/08/28 07:29:39;;;;;;;6.45;1.52;;;17.10;99.90;;;;;;5079021;28;20139;-71
2022/08/28 07:32:05;;;;;;;7.00;1.50;;;17.30;99.90;;;;;;5061428;28;20045;-71
2022/08/28 07:34:31;;;;;;;4.75;1.15;;;17.40;99.90;;;;;;5064641;28;20080;-71
2022/08/28 07:37:02;;;;;;;8.00;1.30;;;17.50;99.90;;;;;;5050031;28;20036;-71
2022/08/28 07:39:29;;;;;;;6.82;1.30;;;17.70;99.90;;;;;;5049379;28;20053;-71
2022/08/28 07:41:55;;;;;;;6.63;1.40;;;17.90;99.90;;;;;;5048269;28;20064;-71
2022/08/28 07:47:05;;;;;;;4.68;1.17;;;18.30;99.90;;;;;;5064276;28;20187;-71
2022/08/28 07:49:33;;;;;;;5.28;1.10;;;18.40;99.90;;;;;;5060843;28;20065;-71
2022/08/28 07:51:59;;;;;;;6.30;1.13;;;18.50;99.90;;;;;;5060897;28;20052;-71
2022/08/28 07:54:25;;;;;;;4.18;1.42;;;18.70;99.90;;;;;;5059768;28;20100;-72
2022/08/28 07:56:53;;;;;;;3.20;1.10;;;18.80;99.90;;;;;;5062694;28;20087;-71
2022/08/28 07:59:22;;;;;;;7.82;1.40;;;19.00;99.90;;;;;;5059949;28;20499;-71
2022/08/28 08:01:52;;;;;;;7.40;1.17;;;19.20;99.90;;;;;;5061324;28;20083;-71
2022/08/28 08:04:23;;;;;;;5.75;1.38;;;19.70;99.90;;;;;;5061058;28;20048;-70
2022/08/28 08:06:53;;;;;;;2.88;0.95;;;20.20;99.90;;;;;;5062149;28;20040;-71
2022/08/28 08:09:22;;;;;;;5.70;1.15;;;20.70;97.60;;;;;;5063029;28;20599;-72
2022/08/28 08:11:52;;;;;;;4.53;1.10;;;21.40;95.50;;;;;;5078772;28;20063;-72
2022/08/28 08:14:21;;;;;;;5.97;1.45;;;22.10;93.00;;;;;;5060933;28;20037;-71
2022/08/28 08:16:51;;;;;;;5.82;1.25;;;22.60;91.70;;;;;;5070258;28;20460;-71
2022/08/28 08:19:20;;;;;;;6.80;1.25;;;23.30;91.00;;;;;;5064081;28;20037;-70
2022/08/28 08:21:50;;;;;;;6.97;1.02;;;23.60;83.20;;;;;;5063816;28;20044;-71
2022/08/28 08:24:19;;;;;;;4.28;1.10;;;23.70;77.50;;;;;;5062675;28;20064;-70
2022/08/28 08:26:50;;;;;;;3.55;1.20;;;23.70;75.60;;;;;;5061070;28;20048;-71
2022/08/28 08:29:19;;;;;;;5.20;1.20;;;23.70;72.20;;;;;;5063097;28;20493;-71
2022/08/28 08:32:30;;;;;;;4.75;0.95;;;23.70;72.90;;;;;;5058342;28;20060;-69
2022/08/28 08:34:55;;;;;;;3.58;0.95;;;24.00;67.40;;;;;;5058596;28;20044;-71
2022/08/28 08:37:23;;;;;;;6.18;1.30;;;24.10;67.60;;;;;;5061772;28;20396;-71
2022/08/28 08:39:53;;;;;;;4.47;1.30;;;24.20;69.20;;;;;;5053735;28;20503;-71
2022/08/28 08:42:28;;;;;;;6.97;1.05;;;24.40;69.20;;;;;;5061353;28;20059;-71
2022/08/28 08:44:57;;;;;;;3.10;0.93;;;24.50;68.20;;;;;;5063116;28;20111;-71
2022/08/28 08:47:46;;;;;;;4.15;0.88;;;24.10;65.50;;;;;;5067530;28;20430;-70
2022/08/28 08:50:25;;;;;;;3.15;1.02;;;23.70;63.70;;;;;;5065937;28;20045;-70
2022/08/28 08:53:27;;;;;;;4.13;1.00;;;23.30;64.50;;;;;;5071616;28;20145;-71
2022/08/28 08:55:56;;;;;;;5.40;1.10;;;22.60;66.80;;;;;;5068141;28;20076;-70
2022/08/28 08:58:28;;;;;;;5.07;1.23;;;22.20;69.50;;;;;;5068696;28;20051;-70
2022/08/28 09:01:16;;;;;;;3.92;1.20;;;22.80;70.20;;;;;;5087223;28;20031;-71
2022/08/28 09:03:42;;;;;;;3.95;1.25;;;23.70;68.60;;;;;;5075465;28;20055;-70
2022/08/28 09:06:18;;;;;;;4.80;1.27;;;23.70;65.70;;;;;;5083096;28;20060;-70
2022/08/28 09:08:55;;;;;;;5.43;1.30;;;23.40;65.50;;;;;;5065941;28;20488;-71
2022/08/28 09:11:44;;;;;;;3.15;1.00;;;23.90;67.30;;;;;;5063613;28;20561;-70
2022/08/28 09:14:31;;;;;;;3.67;1.30;;;24.40;66.00;;;;;;5065059;28;20222;-70
2022/08/28 09:16:58;;;;;;;3.65;1.08;;;24.90;63.10;;;;;;5084588;28;20089;-70
2022/08/28 09:19:24;;;;;;;4.72;1.10;;;25.20;62.10;;;;;;5077846;28;20032;-71
2022/08/28 09:21:51;;;;;;;3.67;1.00;;;25.40;61.80;;;;;;5082180;28;20082;-70
2022/08/28 09:24:35;;;;;;;6.20;1.30;;;24.60;61.80;;;;;;5076793;28;20524;-70
2022/08/28 09:27:25;;;;;;;4.22;0.80;;;23.70;60.90;;;;;;5069310;28;20050;-70
2022/08/28 09:29:59;;;;;;;5.57;1.05;;;23.10;62.70;;;;;;5078834;28;20032;-71
2022/08/28 09:32:43;;;;;;;4.45;1.33;;;22.60;64.10;;;;;;5063972;28;20188;-71
2022/08/28 09:35:28;;;;;;;5.47;1.20;;;22.40;66.40;;;;;;5065583;28;20053;-71
2022/08/28 09:37:55;;;;;;;5.15;1.00;;;23.10;66.00;;;;;;5085978;28;20048;-71
2022/08/28 09:40:23;;;;;;;5.47;1.30;;;23.30;65.20;;;;;;5075834;28;20040;-70
2022/08/28 09:46:29;;;;;;;3.58;0.90;;;23.80;63.00;;;;;;5066732;28;20102;-70
2022/08/28 09:49:12;;;;;;;5.47;1.23;;;24.50;59.50;;;;;;4997811;28;20109;-70
2022/08/28 09:51:38;;;;;;;3.00;0.93;;;24.80;59.20;;;;;;5088274;28;20052;-70
2022/08/28 09:54:33;;;;;;;5.75;0.93;;;24.90;60.60;;;;;;5069624;28;20558;-70
2022/08/28 09:56:59;;;;;;;4.45;1.02;;;25.00;58.40;;;;;;5070168;28;20040;-71
2022/08/28 09:59:27;;;;;;;5.18;1.30;;;24.70;59.30;;;;;;5074291;28;20063;-71
2022/08/28 10:02:12;;;;;;;4.60;1.08;;;24.20;60.90;;;;;;5072568;28;20051;-70
2022/08/28 10:04:52;;;;;;;3.08;1.00;;;24.00;60.30;;;;;;5090095;28;20040;-70
2022/08/28 10:07:50;;;;;;;4.20;1.10;;;24.00;58.40;;;;;;5086634;28;20044;-70
2022/08/28 10:10:34;;;;;;;3.97;1.27;;;24.30;60.30;;;;;;5085757;28;20060;-71
2022/08/28 10:13:09;;;;;;;4.63;1.10;;;24.60;58.60;;;;;;5081300;28;20062;-70
2022/08/28 10:16:02;;;;;;;4.20;1.42;;;24.70;59.30;;;;;;5078769;28;20044;-70
2022/08/28 10:19:05;;;;;;;4.07;1.10;;;24.80;59.20;;;;;;5057812;28;20165;-70
2022/08/28 10:22:12;;;;;;;6.25;1.65;;;24.10;58.70;;;;;;5066768;28;20036;-70
2022/08/28 10:25:12;;;;;;;6.00;1.50;;;23.40;60.50;;;;;;4975005;28;20048;-70
2022/08/28 10:27:44;;;;;;;6.97;1.33;;;23.30;62.50;;;;;;5069731;28;20043;-71
2022/08/28 10:30:17;;;;;;;3.45;1.27;;;23.60;62.40;;;;;;5069665;28;20040;-71
2022/08/28 10:32:55;;;;;;;5.70;1.52;;;24.20;63.00;;;;;;5073580;28;20041;-71
2022/08/28 10:35:26;;;;;;;4.15;1.13;;;24.60;62.30;;;;;;5065832;28;20123;-70
2022/08/28 10:38:17;;;;;;;3.15;1.02;;;24.20;59.00;;;;;;5044421;28;20055;-71
2022/08/28 10:40:53;;;;;;;3.45;1.13;;;23.60;58.90;;;;;;5063052;28;20135;-71
2022/08/28 10:43:50;;;;;;;3.25;1.05;;;23.40;60.90;;;;;;5075462;28;20048;-71
2022/08/28 10:46:48;;;;;;;4.07;0.98;;;23.60;61.40;;;;;;5085446;28;20048;-71
2022/08/28 10:49:33;;;;;;;4.03;1.10;;;24.00;57.20;;;;;;5091123;28;20062;-71
2022/08/28 10:52:16;;;;;;;4.75;1.48;;;24.30;58.10;;;;;;5072042;28;20049;-71
2022/08/28 10:54:52;;;;;;;6.15;1.23;;;24.30;58.90;;;;;;5088776;28;20040;-71
2022/08/28 10:57:44;;;;;;;3.03;1.40;;;24.60;59.30;;;;;;5070228;28;20052;-71
2022/08/28 11:00:18;;;;;;;4.13;1.42;;;24.30;57.10;;;;;;5084149;28;20440;-71
2022/08/28 11:02:52;;;;;;;5.50;1.27;;;24.00;58.40;;;;;;5082998;28;20412;-71
2022/08/28 11:05:23;;;;;;;3.28;1.02;;;23.50;59.30;;;;;;5074926;28;20501;-71
2022/08/28 11:07:57;;;;;;;3.92;1.10;;;23.10;60.10;;;;;;5073781;28;20087;-70
2022/08/28 11:10:33;;;;;;;5.15;1.30;;;22.80;60.20;;;;;;5090818;28;20504;-71
2022/08/28 11:13:00;;;;;;;4.65;1.30;;;22.40;61.10;;;;;;5070206;28;20041;-71
2022/08/28 11:15:31;;;;;;;5.03;1.45;;;22.40;62.20;;;;;;5067719;28;20036;-71
2022/08/28 11:18:17;;;;;;;5.70;1.30;;;22.90;62.70;;;;;;5089134;28;20037;-71
2022/08/28 11:21:07;;;;;;;4.22;1.10;;;23.20;63.50;;;;;;5059279;28;20108;-71
2022/08/28 11:24:02;;;;;;;9.45;8.27;;;22.90;60.90;;;;;;5072109;28;20064;-71
2022/08/28 11:26:51;;;;;;;3.22;1.15;;;22.50;61.80;;;;;;5082509;28;20049;-71
2022/08/28 11:29:54;;;;;;;3.90;1.30;;;22.00;62.00;;;;;;5063401;28;20055;-71
2022/08/28 11:32:35;;;;;;;5.30;1.42;;;21.70;64.20;;;;;;5071257;28;20070;-72
2022/08/28 11:35:19;;;;;;;5.47;1.60;;;21.70;64.80;;;;;;5067906;28;20041;-71
2022/08/28 11:37:48;;;;;;;6.43;1.30;;;22.40;63.50;;;;;;5085428;28;20077;-71
2022/08/28 11:40:29;;;;;;;4.38;1.23;;;22.90;62.50;;;;;;5065430;28;20444;-71
2022/08/28 11:43:19;;;;;;;4.57;1.50;;;23.60;61.30;;;;;;5071907;28;20040;-71
2022/08/28 11:45:45;;;;;;;4.85;1.33;;;24.30;58.00;;;;;;5068668;28;20135;-71
2022/08/28 11:48:35;;;;;;;4.80;0.90;;;24.90;59.00;;;;;;5086013;28;20059;-70
2022/08/28 11:51:25;;;;;;;4.97;1.13;;;24.90;56.40;;;;;;5079958;28;20028;-71
2022/08/28 11:54:11;;;;;;;5.55;1.50;;;24.20;55.90;;;;;;5081696;28;20040;-71
2022/08/28 11:56:50;;;;;;;3.17;1.30;;;23.20;57.20;;;;;;5083237;28;20032;-71
2022/08/28 11:59:23;;;;;;;5.35;1.42;;;22.60;58.20;;;;;;5063677;28;20040;-71
2022/08/28 12:01:48;;;;;;;4.53;1.03;;;22.10;60.00;;;;;;5067680;28;20052;-71
2022/08/28 12:04:22;;;;;;;3.17;1.27;;;21.80;60.90;;;;;;5086177;28;20044;-71
2022/08/28 12:06:51;;;;;;;7.28;1.20;;;21.90;59.80;;;;;;5070838;28;20055;-71
2022/08/28 12:09:35;;;;;;;3.75;0.90;;;22.50;59.30;;;;;;5069134;28;20044;-71
2022/08/28 12:12:12;;;;;;;4.75;1.40;;;23.40;58.90;;;;;;5066311;28;20065;-71
2022/08/28 12:14:38;;;;;;;4.20;1.05;;;24.40;57.50;;;;;;5080509;28;20044;-71
2022/08/28 12:17:21;;;;;;;4.65;1.35;;;24.70;56.00;;;;;;5091993;28;20116;-71
2022/08/28 12:20:09;;;;;;;4.70;1.23;;;24.20;55.60;;;;;;5069854;28;20500;-72
2022/08/28 12:22:58;;;;;;;5.45;1.35;;;23.60;56.40;;;;;;5090295;28;20042;-71
2022/08/28 12:25:42;;;;;;;6.60;1.15;;;23.90;56.20;;;;;;5088863;28;20040;-71
2022/08/28 12:28:32;;;;;;;153.05;137.32;;;24.40;54.50;;;;;;5071849;28;20099;-71
2022/08/28 12:31:04;;;;;;;3.70;2.00;;;24.40;54.30;;;;;;5092374;28;20645;-71
2022/08/28 12:33:59;;;;;;;3.60;1.10;;;24.80;54.80;;;;;;5071243;28;20044;-70
2022/08/28 12:36:27;;;;;;;3.95;1.70;;;25.20;53.00;;;;;;5091219;28;20051;-71
2022/08/28 12:38:56;;;;;;;3.30;1.08;;;25.60;53.20;;;;;;5085605;28;20062;-71
2022/08/28 12:41:23;;;;;;;7.60;1.23;;;25.80;51.30;;;;;;5082402;28;20491;-71
2022/08/28 12:43:54;;;;;;;4.88;1.35;;;25.00;52.30;;;;;;5069153;28;20040;-71
2022/08/28 12:46:35;;;;;;;4.05;1.25;;;24.00;54.40;;;;;;5083883;28;20052;-71
2022/08/28 12:49:03;;;;;;;4.28;1.02;;;23.30;55.90;;;;;;5073929;28;20040;-71
2022/08/28 12:51:35;;;;;;;2.70;1.10;;;23.40;56.00;;;;;;5081253;28;20029;-70
2022/08/28 12:54:06;;;;;;;4.95;1.13;;;23.20;55.30;;;;;;5064024;28;20580;-70
2022/08/28 12:56:35;;;;;;;4.45;1.10;;;22.70;56.60;;;;;;5081205;28;20068;-70
2022/08/28 12:59:23;;;;;;;3.65;1.10;;;22.50;57.70;;;;;;5057764;28;20036;-70
2022/08/28 13:01:49;;;;;;;3.58;1.13;;;22.50;59.40;;;;;;5070053;28;20074;-71
2022/08/28 13:04:37;;;;;;;3.90;1.10;;;23.20;59.90;;;;;;5071915;28;20027;-70
2022/08/28 13:07:13;;;;;;;6.15;1.13;;;24.20;58.90;;;;;;5067710;28;20036;-70
2022/08/28 13:09:49;;;;;;;4.72;1.48;;;24.90;55.70;;;;;;5082699;28;20047;-70
2022/08/28 13:12:38;;;;;;;3.33;1.10;;;24.60;53.90;;;;;;5082941;28;20127;-70
2022/08/28 13:15:05;;;;;;;4.45;1.30;;;23.80;55.10;;;;;;5078676;28;20075;-71
2022/08/28 13:17:45;;;;;;;4.47;1.27;;;24.20;56.00;;;;;;5068280;28;20043;-75